createdAt,value
2022-08-20T00:00:10.566Z,9.40
2022-08-20T00:01:11.717Z,9.90
2022-08-20T00:02:10.502Z,9.30
2022-08-20T00:03:10.367Z,9.30
2022-08-20T00:04:10.302Z,11.10
2022-08-20T00:05:10.253Z,8.30
2022-08-20T00:06:10.188Z,9.30
2022-08-20T00:07:10.904Z,8.50
2022-08-20T00:08:10.020Z,8.70
2022-08-20T00:09:09.927Z,10.60
2022-08-20T00:10:09.935Z,10.60
2022-08-20T00:11:09.857Z,10.00
2022-08-20T00:12:09.794Z,14.20
2022-08-20T00:13:09.768Z,8.50
2022-08-20T00:14:09.625Z,8.60
2022-08-20T00:15:09.615Z,9.00
2022-08-20T00:16:09.541Z,10.80
2022-08-20T00:17:09.484Z,9.10
2022-08-20T00:18:09.413Z,11.10
2022-08-20T00:19:09.338Z,9.30
2022-08-20T00:20:09.281Z,9.90
2022-08-20T00:21:09.224Z,12.40
2022-08-20T00:22:09.118Z,10.30
2022-08-20T00:23:10.667Z,10.60
2022-08-20T00:24:09.049Z,9.80
2022-08-20T00:25:08.988Z,12.60
2022-08-20T00:26:08.903Z,11.00
2022-08-20T00:27:08.838Z,10.20
2022-08-20T00:28:08.792Z,10.50
2022-08-20T00:29:08.729Z,10.60
2022-08-20T00:30:08.658Z,11.00
2022-08-20T00:31:09.369Z,11.60
2022-08-20T00:32:08.525Z,12.80
2022-08-20T00:33:08.476Z,14.90
2022-08-20T00:34:08.415Z,11.50
2022-08-20T00:35:08.331Z,19.00
2022-08-20T00:36:08.262Z,12.30
2022-08-20T00:37:08.212Z,12.70
2022-08-20T00:38:08.135Z,17.90
2022-08-20T00:39:08.090Z,11.70
2022-08-20T00:40:08.047Z,12.90
2022-08-20T00:41:07.956Z,13.10
2022-08-20T00:42:07.895Z,12.10
2022-08-20T00:43:11.829Z,13.80
2022-08-20T00:44:07.756Z,14.30
2022-08-20T00:45:07.689Z,19.20
2022-08-20T00:46:07.647Z,12.10
2022-08-20T00:47:07.588Z,17.50
2022-08-20T00:48:07.514Z,13.10
2022-08-20T00:49:07.497Z,13.60
2022-08-20T00:50:07.381Z,12.90
2022-08-20T00:51:07.272Z,13.30
2022-08-20T00:52:07.258Z,12.60
2022-08-20T00:53:07.202Z,13.40
2022-08-20T00:54:07.117Z,14.00
2022-08-20T00:55:07.122Z,16.70
2022-08-20T00:56:06.996Z,14.40
2022-08-20T00:57:06.929Z,14.00
2022-08-20T00:58:07.274Z,14.20
2022-08-20T00:59:06.846Z,14.40
2022-08-20T01:00:06.756Z,13.50
2022-08-20T01:01:06.688Z,14.70
2022-08-20T01:02:06.685Z,14.90
2022-08-20T01:03:06.586Z,14.10
2022-08-20T01:04:06.500Z,15.00
2022-08-20T01:05:06.432Z,20.90
2022-08-20T01:06:06.355Z,16.50
2022-08-20T01:07:07.083Z,28.00
2022-08-20T01:08:06.241Z,18.30
2022-08-20T01:09:06.175Z,20.10
2022-08-20T01:10:06.111Z,20.20
2022-08-20T01:11:06.053Z,20.20
2022-08-20T01:12:05.971Z,23.30
2022-08-20T01:13:06.675Z,22.60
2022-08-20T01:14:05.866Z,20.90
2022-08-20T01:15:05.790Z,23.00
2022-08-20T01:16:05.720Z,19.40
2022-08-20T01:17:05.666Z,24.30
2022-08-20T01:18:05.591Z,20.20
2022-08-20T01:19:05.820Z,21.90
2022-08-20T01:20:05.487Z,19.90
2022-08-20T01:21:05.398Z,21.40
2022-08-20T01:22:05.353Z,24.80
2022-08-20T01:23:05.278Z,22.40
2022-08-20T01:24:05.215Z,21.40
2022-08-20T01:25:05.198Z,20.90
2022-08-20T01:26:05.083Z,25.20
2022-08-20T01:27:05.019Z,24.70
2022-08-20T01:28:04.973Z,21.10
2022-08-20T01:29:04.898Z,21.60
2022-08-20T01:30:06.211Z,22.60
2022-08-20T01:31:04.794Z,22.00
2022-08-20T01:32:04.719Z,25.10
2022-08-20T01:33:04.639Z,21.90
2022-08-20T01:34:04.580Z,25.50
2022-08-20T01:35:04.531Z,14.00
2022-08-20T01:36:04.452Z,10.50
2022-08-20T01:37:05.610Z,10.60
2022-08-20T01:38:04.340Z,8.70
2022-08-20T01:39:04.275Z,8.10
2022-08-20T01:40:04.292Z,8.00
2022-08-20T01:41:04.145Z,8.50
2022-08-20T01:42:04.069Z,8.90
2022-08-20T01:43:04.781Z,8.40
2022-08-20T01:44:03.948Z,8.40
2022-08-20T01:45:04.324Z,7.30
2022-08-20T01:46:04.116Z,9.50
2022-08-20T01:47:03.744Z,10.30
2022-08-20T01:48:03.685Z,9.00
2022-08-20T01:49:03.653Z,10.30
2022-08-20T01:50:03.576Z,11.60
2022-08-20T01:51:03.511Z,11.50
2022-08-20T01:52:03.447Z,14.20
2022-08-20T01:53:03.366Z,13.20
2022-08-20T01:54:03.320Z,14.20
2022-08-20T01:55:04.453Z,15.50
2022-08-20T01:56:03.178Z,17.90
2022-08-20T01:57:03.118Z,17.00
2022-08-20T01:58:03.043Z,17.60
2022-08-20T01:59:02.984Z,18.50
2022-08-20T02:00:02.916Z,22.70
2022-08-20T02:01:02.875Z,22.10
2022-08-20T02:02:02.803Z,20.80
2022-08-20T02:03:02.744Z,16.80
2022-08-20T02:04:02.661Z,14.80
2022-08-20T02:05:02.615Z,13.10
2022-08-20T02:06:02.539Z,13.90
2022-08-20T02:07:02.497Z,13.60
2022-08-20T02:08:02.421Z,12.80
2022-08-20T02:09:02.361Z,11.90
2022-08-20T02:10:02.299Z,11.80
2022-08-20T02:11:02.217Z,11.80
2022-08-20T02:12:02.150Z,11.70
2022-08-20T02:13:02.096Z,14.40
2022-08-20T02:14:02.032Z,11.40
2022-08-20T02:15:01.963Z,11.10
2022-08-20T02:16:01.875Z,12.10
2022-08-20T02:17:01.835Z,11.60
2022-08-20T02:18:01.769Z,12.00
2022-08-20T02:19:02.931Z,12.70
2022-08-20T02:20:01.669Z,12.10
2022-08-20T02:21:01.580Z,12.40
2022-08-20T02:22:01.530Z,12.20
2022-08-20T02:23:01.453Z,13.70
2022-08-20T02:24:01.385Z,12.30
2022-08-20T02:25:03.492Z,11.60
2022-08-20T02:26:01.270Z,13.00
2022-08-20T02:27:01.303Z,15.30
2022-08-20T02:28:01.134Z,11.50
2022-08-20T02:29:01.305Z,12.70
2022-08-20T02:30:01.000Z,10.50
2022-08-20T02:31:00.953Z,11.80
2022-08-20T02:32:32.021Z,15.40
2022-08-20T02:33:00.833Z,12.00
2022-08-20T02:34:18.489Z,10.50
2022-08-20T02:35:00.693Z,11.80
2022-08-20T02:36:00.622Z,11.30
2022-08-20T02:37:02.848Z,11.30
2022-08-20T02:38:00.498Z,10.50
2022-08-20T02:39:00.440Z,11.30
2022-08-20T02:40:00.460Z,11.90
2022-08-20T02:41:00.300Z,10.90
2022-08-20T02:42:00.237Z,10.40
2022-08-20T02:43:00.201Z,12.00
2022-08-20T02:44:00.115Z,10.70
2022-08-20T02:45:00.066Z,20.20
2022-08-20T02:45:59.981Z,11.70
2022-08-20T02:46:59.937Z,12.80
2022-08-20T02:47:59.866Z,10.70
2022-08-20T02:49:00.592Z,11.80
2022-08-20T02:49:59.735Z,10.90
2022-08-20T02:50:59.678Z,10.60
2022-08-20T02:51:59.597Z,10.20
2022-08-20T02:52:59.586Z,10.80
2022-08-20T02:53:59.482Z,10.80
2022-08-20T02:55:00.946Z,11.60
2022-08-20T02:55:59.362Z,15.80
2022-08-20T02:56:59.295Z,11.60
2022-08-20T02:57:59.520Z,10.10
2022-08-20T02:58:59.155Z,11.50
2022-08-20T02:59:59.094Z,10.90
2022-08-20T03:00:59.076Z,11.80
2022-08-20T03:02:00.827Z,11.10
2022-08-20T03:02:58.934Z,11.20
2022-08-20T03:03:58.852Z,12.50
2022-08-20T03:04:58.787Z,12.60
2022-08-20T03:05:58.710Z,12.00
2022-08-20T03:06:59.437Z,19.30
2022-08-20T03:07:58.641Z,13.30
2022-08-20T03:08:58.514Z,12.10
2022-08-20T03:09:58.447Z,11.70
2022-08-20T03:10:58.405Z,16.50
2022-08-20T03:11:58.339Z,12.80
2022-08-20T03:13:01.351Z,12.40
2022-08-20T03:13:58.209Z,12.20
2022-08-20T03:14:58.126Z,14.90
2022-08-20T03:15:58.948Z,14.10
2022-08-20T03:16:58.007Z,13.80
2022-08-20T03:17:57.957Z,14.40
2022-08-20T03:18:57.899Z,13.70
2022-08-20T03:19:57.826Z,14.00
2022-08-20T03:20:57.785Z,16.70
2022-08-20T03:21:57.679Z,13.20
2022-08-20T03:22:57.617Z,14.30
2022-08-20T03:23:57.579Z,15.10
2022-08-20T03:24:58.262Z,17.90
2022-08-20T03:25:57.450Z,13.90
2022-08-20T03:26:57.373Z,15.00
2022-08-20T03:27:57.688Z,15.30
2022-08-20T03:28:57.245Z,16.50
2022-08-20T03:29:57.176Z,15.80
2022-08-20T03:30:57.508Z,16.00
2022-08-20T03:31:57.046Z,16.60
2022-08-20T03:32:56.981Z,16.90
2022-08-20T03:33:56.935Z,19.70
2022-08-20T03:34:56.869Z,18.80
2022-08-20T03:35:56.802Z,31.80
2022-08-20T03:36:57.504Z,18.50
2022-08-20T03:37:56.796Z,18.10
2022-08-20T03:38:56.596Z,18.30
2022-08-20T03:39:56.587Z,19.70
2022-08-20T03:40:56.479Z,19.80
2022-08-20T03:41:56.418Z,19.50
2022-08-20T03:42:56.379Z,18.60
2022-08-20T03:43:56.298Z,17.40
2022-08-20T03:44:58.841Z,18.20
2022-08-20T03:45:56.167Z,19.10
2022-08-20T03:46:56.084Z,17.50
2022-08-20T03:47:56.288Z,19.90
2022-08-20T03:49:00.270Z,20.10
2022-08-20T03:49:55.844Z,18.50
2022-08-20T03:50:55.792Z,20.20
2022-08-20T03:51:57.427Z,18.40
2022-08-20T03:52:55.661Z,18.30
2022-08-20T03:53:55.593Z,22.80
2022-08-20T03:54:57.064Z,23.20
2022-08-20T03:55:58.254Z,17.50
2022-08-20T03:56:55.393Z,21.50
2022-08-20T03:57:55.481Z,23.20
2022-08-20T03:58:55.282Z,22.90
2022-08-20T03:59:58.547Z,27.60
2022-08-20T04:00:56.711Z,19.80
2022-08-20T04:01:55.136Z,25.20
2022-08-20T04:02:55.009Z,19.70
2022-08-20T04:03:55.370Z,20.90
2022-08-20T04:04:54.902Z,20.20
2022-08-20T04:05:54.813Z,20.30
2022-08-20T04:06:54.764Z,20.00
2022-08-20T04:07:54.926Z,20.70
2022-08-20T04:08:54.627Z,20.00
2022-08-20T04:09:54.557Z,20.40
2022-08-20T04:10:54.497Z,21.20
2022-08-20T04:11:54.450Z,20.90
2022-08-20T04:12:54.402Z,21.30
2022-08-20T04:13:54.314Z,24.50
2022-08-20T04:14:54.256Z,20.00
2022-08-20T04:15:54.182Z,25.70
2022-08-20T04:16:54.157Z,20.70
2022-08-20T04:17:54.093Z,20.60
2022-08-20T04:19:01.492Z,21.00
2022-08-20T04:19:53.924Z,19.90
2022-08-20T04:20:53.866Z,19.60
2022-08-20T04:21:53.818Z,20.90
2022-08-20T04:22:58.310Z,20.00
2022-08-20T04:23:53.676Z,20.90
2022-08-20T04:24:55.597Z,20.50
2022-08-20T04:25:53.540Z,22.40
2022-08-20T04:26:53.485Z,21.30
2022-08-20T04:27:53.427Z,20.70
2022-08-20T04:28:53.381Z,22.90
2022-08-20T04:29:53.297Z,29.40
2022-08-20T04:30:53.255Z,21.80
2022-08-20T04:31:53.168Z,23.00
2022-08-20T04:32:53.100Z,22.20
2022-08-20T04:33:53.047Z,21.50
2022-08-20T04:34:52.974Z,21.70
2022-08-20T04:35:52.896Z,22.70
2022-08-20T04:36:52.883Z,22.40
2022-08-20T04:37:52.781Z,22.20
2022-08-20T04:38:52.708Z,22.00
2022-08-20T04:39:52.717Z,23.40
2022-08-20T04:40:52.591Z,22.80
2022-08-20T04:41:52.510Z,21.10
2022-08-20T04:42:53.332Z,22.70
2022-08-20T04:43:52.391Z,22.90
2022-08-20T04:44:52.329Z,21.90
2022-08-20T04:45:52.260Z,21.40
2022-08-20T04:46:52.209Z,22.80
2022-08-20T04:47:52.141Z,24.70
2022-08-20T04:48:52.835Z,21.70
2022-08-20T04:49:52.004Z,22.50
2022-08-20T04:50:51.952Z,21.50
2022-08-20T04:51:51.885Z,21.20
2022-08-20T04:52:51.820Z,20.20
2022-08-20T04:53:53.511Z,21.60
2022-08-20T04:54:51.713Z,29.80
2022-08-20T04:55:51.627Z,22.10
2022-08-20T04:56:51.559Z,20.90
2022-08-20T04:57:51.591Z,23.20
2022-08-20T04:58:51.494Z,22.80
2022-08-20T04:59:51.359Z,20.70
2022-08-20T05:00:52.523Z,21.50
2022-08-20T05:01:51.237Z,21.50
2022-08-20T05:02:51.172Z,21.90
2022-08-20T05:03:51.103Z,22.20
2022-08-20T05:04:51.044Z,21.60
2022-08-20T05:05:50.981Z,23.00
2022-08-20T05:06:50.945Z,28.10
2022-08-20T05:07:50.852Z,23.30
2022-08-20T05:08:50.802Z,27.10
2022-08-20T05:09:50.729Z,23.10
2022-08-20T05:10:50.667Z,28.60
2022-08-20T05:11:50.598Z,24.20
2022-08-20T05:12:56.727Z,25.40
2022-08-20T05:13:50.476Z,24.70
2022-08-20T05:14:50.420Z,24.10
2022-08-20T05:15:50.354Z,24.50
2022-08-20T05:16:50.280Z,24.70
2022-08-20T05:17:50.295Z,23.40
2022-08-20T05:18:52.158Z,22.90
2022-08-20T05:19:50.079Z,24.80
2022-08-20T05:20:50.032Z,24.50
2022-08-20T05:21:49.971Z,25.90
2022-08-20T05:22:49.906Z,23.90
2022-08-20T05:23:49.844Z,24.80
2022-08-20T05:24:49.777Z,23.50
2022-08-20T05:25:49.716Z,26.20
2022-08-20T05:26:49.651Z,25.10
2022-08-20T05:27:49.593Z,24.50
2022-08-20T05:28:57.191Z,24.40
2022-08-20T05:29:49.448Z,23.30
2022-08-20T05:30:49.413Z,24.40
2022-08-20T05:31:49.333Z,23.50
2022-08-20T05:32:49.269Z,23.80
2022-08-20T05:33:49.190Z,25.90
2022-08-20T05:34:49.140Z,27.50
2022-08-20T05:35:49.058Z,34.90
2022-08-20T05:36:49.471Z,26.50
2022-08-20T05:37:48.946Z,31.20
2022-08-20T05:38:49.661Z,25.90
2022-08-20T05:39:48.892Z,35.30
2022-08-20T05:40:48.784Z,34.50
2022-08-20T05:41:48.688Z,37.30
2022-08-20T05:42:48.651Z,29.00
2022-08-20T05:43:48.566Z,45.60
2022-08-20T05:44:48.504Z,35.70
2022-08-20T05:45:48.450Z,37.30
2022-08-20T05:46:48.377Z,27.10
2022-08-20T05:47:48.313Z,25.80
2022-08-20T05:48:49.037Z,23.50
2022-08-20T05:49:48.168Z,27.70
2022-08-20T05:50:48.121Z,21.00
2022-08-20T05:51:48.043Z,21.90
2022-08-20T05:52:47.976Z,20.50
2022-08-20T05:53:47.924Z,20.70
2022-08-20T05:54:49.366Z,21.30
2022-08-20T05:55:47.788Z,19.50
2022-08-20T05:56:47.734Z,19.70
2022-08-20T05:57:47.659Z,16.10
2022-08-20T05:58:47.641Z,17.30
2022-08-20T05:59:47.548Z,13.80
2022-08-20T06:00:47.549Z,10.30
2022-08-20T06:01:47.411Z,9.30
2022-08-20T06:02:47.349Z,9.00
2022-08-20T06:03:47.285Z,6.90
2022-08-20T06:04:47.220Z,7.30
2022-08-20T06:05:47.159Z,7.30
2022-08-20T06:06:47.867Z,6.80
2022-08-20T06:07:47.015Z,5.70
2022-08-20T06:08:46.956Z,5.20
2022-08-20T06:09:46.883Z,5.90
2022-08-20T06:10:46.834Z,9.60
2022-08-20T06:11:46.760Z,6.50
2022-08-20T06:12:47.479Z,7.80
2022-08-20T06:13:46.627Z,8.30
2022-08-20T06:14:46.581Z,17.30
2022-08-20T06:15:46.515Z,6.40
2022-08-20T06:16:57.289Z,3.90
2022-08-20T06:17:46.382Z,4.70
2022-08-20T06:18:47.872Z,5.10
2022-08-20T06:19:46.911Z,5.00
2022-08-20T06:20:46.188Z,16.50
2022-08-20T06:21:46.116Z,5.60
2022-08-20T06:22:46.062Z,5.40
2022-08-20T06:23:57.550Z,5.20
2022-08-20T06:24:46.717Z,5.50
2022-08-20T06:25:45.866Z,5.00
2022-08-20T06:26:45.803Z,5.10
2022-08-20T06:27:45.734Z,5.70
2022-08-20T06:28:45.681Z,4.50
2022-08-20T06:29:45.623Z,4.40
2022-08-20T06:30:45.561Z,4.00
2022-08-20T06:31:45.478Z,3.70
2022-08-20T06:32:45.418Z,8.60
2022-08-20T06:33:45.350Z,3.90
2022-08-20T06:34:50.202Z,6.00
2022-08-20T06:35:45.234Z,5.10
2022-08-20T06:36:45.193Z,4.60
2022-08-20T06:37:45.103Z,4.20
2022-08-20T06:38:45.032Z,4.90
2022-08-20T06:39:44.986Z,5.40
2022-08-20T06:40:44.916Z,5.40
2022-08-20T06:41:44.842Z,5.10
2022-08-20T06:42:48.745Z,4.20
2022-08-20T06:43:44.702Z,4.20
2022-08-20T06:44:44.660Z,3.90
2022-08-20T06:45:44.591Z,3.70
2022-08-20T06:46:44.533Z,2.80
2022-08-20T06:47:44.466Z,3.30
2022-08-20T06:48:44.689Z,6.20
2022-08-20T06:49:44.321Z,3.50
2022-08-20T06:50:47.704Z,3.20
2022-08-20T06:51:44.216Z,3.00
2022-08-20T06:52:51.927Z,3.30
2022-08-20T06:53:44.080Z,4.40
2022-08-20T06:54:44.768Z,3.60
2022-08-20T06:55:48.474Z,4.40
2022-08-20T06:56:43.872Z,4.40
2022-08-20T06:57:43.834Z,9.80
2022-08-20T06:58:43.762Z,7.20
2022-08-20T06:59:43.682Z,6.50
2022-08-20T07:00:43.640Z,8.60
2022-08-20T07:01:43.619Z,19.40
2022-08-20T07:02:43.491Z,21.50
2022-08-20T07:03:55.668Z,20.30
2022-08-20T07:04:43.387Z,19.50
2022-08-20T07:05:43.306Z,16.90
2022-08-20T07:06:43.268Z,15.70
2022-08-20T07:07:43.178Z,16.50
2022-08-20T07:08:43.117Z,13.90
2022-08-20T07:09:43.060Z,14.10
2022-08-20T07:10:42.993Z,12.30
2022-08-20T07:11:42.912Z,14.20
2022-08-20T07:12:43.642Z,12.60
2022-08-20T07:13:42.798Z,11.60
2022-08-20T07:14:42.726Z,13.80
2022-08-20T07:15:42.663Z,14.00
2022-08-20T07:16:42.613Z,14.00
2022-08-20T07:17:42.550Z,16.20
2022-08-20T07:18:42.481Z,17.30
2022-08-20T07:19:42.424Z,18.70
2022-08-20T07:20:42.342Z,18.60
2022-08-20T07:21:42.271Z,17.80
2022-08-20T07:22:42.212Z,17.30
2022-08-20T07:23:42.169Z,15.80
2022-08-20T07:24:44.937Z,13.30
2022-08-20T07:25:42.036Z,14.20
2022-08-20T07:26:41.959Z,14.00
2022-08-20T07:27:41.888Z,12.70
2022-08-20T07:28:41.833Z,10.90
2022-08-20T07:29:41.780Z,10.20
2022-08-20T07:30:55.755Z,11.00
2022-08-20T07:31:42.293Z,11.90
2022-08-20T07:32:41.755Z,10.90
2022-08-20T07:33:41.526Z,11.20
2022-08-20T07:34:43.678Z,10.50
2022-08-20T07:35:41.397Z,10.90
2022-08-20T07:36:41.331Z,10.40
2022-08-20T07:37:41.273Z,11.00
2022-08-20T07:38:41.192Z,9.70
2022-08-20T07:39:41.169Z,9.30
2022-08-20T07:40:41.076Z,10.30
2022-08-20T07:41:41.001Z,12.00
2022-08-20T07:42:41.731Z,11.20
2022-08-20T07:43:40.877Z,15.40
2022-08-20T07:44:40.821Z,12.50
2022-08-20T07:45:40.753Z,11.00
2022-08-20T07:46:40.680Z,11.70
2022-08-20T07:47:40.634Z,11.10
2022-08-20T07:48:40.571Z,13.30
2022-08-20T07:49:40.502Z,13.00
2022-08-20T07:50:40.424Z,12.10
2022-08-20T07:51:40.369Z,12.90
2022-08-20T07:52:40.298Z,12.70
2022-08-20T07:53:40.272Z,11.70
2022-08-20T07:54:40.982Z,11.90
2022-08-20T07:55:40.117Z,11.60
2022-08-20T07:56:40.045Z,12.20
2022-08-20T07:57:39.977Z,28.10
2022-08-20T07:58:39.912Z,14.50
2022-08-20T07:59:39.868Z,13.70
2022-08-20T08:00:39.855Z,13.80
2022-08-20T08:01:39.722Z,13.90
2022-08-20T08:02:39.660Z,13.80
2022-08-20T08:03:49.322Z,14.20
2022-08-20T08:04:39.560Z,14.10
2022-08-20T08:05:39.480Z,13.20
2022-08-20T08:06:40.956Z,14.20
2022-08-20T08:07:39.354Z,13.60
2022-08-20T08:08:39.299Z,14.00
2022-08-20T08:09:39.216Z,13.60
2022-08-20T08:10:39.164Z,13.70
2022-08-20T08:11:39.089Z,12.60
2022-08-20T08:12:39.041Z,11.70
2022-08-20T08:13:38.961Z,11.20
2022-08-20T08:14:38.908Z,10.20
2022-08-20T08:15:38.846Z,12.80
2022-08-20T08:16:38.774Z,9.50
2022-08-20T08:17:38.724Z,11.40
2022-08-20T08:18:38.680Z,9.50
2022-08-20T08:19:38.588Z,10.10
2022-08-20T08:20:38.533Z,11.30
2022-08-20T08:21:38.474Z,11.50
2022-08-20T08:22:38.404Z,10.70
2022-08-20T08:23:38.328Z,9.80
2022-08-20T08:24:40.582Z,11.20
2022-08-20T08:25:38.215Z,10.40
2022-08-20T08:26:38.149Z,10.20
2022-08-20T08:27:38.088Z,10.40
2022-08-20T08:28:38.008Z,9.90
2022-08-20T08:29:37.940Z,8.70
2022-08-20T08:30:38.699Z,9.10
2022-08-20T08:31:37.818Z,9.50
2022-08-20T08:32:37.754Z,7.90
2022-08-20T08:33:37.688Z,7.70
2022-08-20T08:34:37.641Z,7.80
2022-08-20T08:35:37.586Z,7.30
2022-08-20T08:36:37.525Z,7.30
2022-08-20T08:37:37.449Z,7.00
2022-08-20T08:38:37.374Z,8.60
2022-08-20T08:39:37.450Z,8.60
2022-08-20T08:40:37.355Z,8.40
2022-08-20T08:41:37.183Z,8.60
2022-08-20T08:42:42.613Z,8.00
2022-08-20T08:43:37.059Z,8.10
2022-08-20T08:44:36.992Z,8.50
2022-08-20T08:45:36.936Z,7.60
2022-08-20T08:46:36.883Z,8.80
2022-08-20T08:47:36.806Z,9.50
2022-08-20T08:48:39.096Z,8.80
2022-08-20T08:49:38.199Z,8.10
2022-08-20T08:50:53.317Z,8.30
2022-08-20T08:51:36.567Z,7.80
2022-08-20T08:52:36.490Z,8.80
2022-08-20T08:53:36.433Z,8.10
2022-08-20T08:54:36.377Z,8.20
2022-08-20T08:55:36.310Z,8.60
2022-08-20T08:56:36.237Z,9.20
2022-08-20T08:57:36.175Z,7.60
2022-08-20T08:58:36.110Z,8.40
2022-08-20T08:59:48.520Z,8.10
2022-08-20T09:00:38.397Z,7.80
2022-08-20T09:01:54.417Z,7.50
2022-08-20T09:02:35.935Z,6.80
2022-08-20T09:03:35.810Z,7.40
2022-08-20T09:04:35.732Z,6.90
2022-08-20T09:05:35.672Z,7.00
2022-08-20T09:06:38.008Z,7.30
2022-08-20T09:07:35.537Z,15.60
2022-08-20T09:08:35.481Z,7.50
2022-08-20T09:09:35.416Z,5.60
2022-08-20T09:10:35.366Z,5.40
2022-08-20T09:11:35.344Z,5.50
2022-08-20T09:12:35.231Z,5.30
2022-08-20T09:13:35.178Z,6.50
2022-08-20T09:14:35.096Z,7.00
2022-08-20T09:15:35.034Z,7.50
2022-08-20T09:16:53.134Z,6.30
2022-08-20T09:17:34.935Z,6.40
2022-08-20T09:18:34.862Z,4.90
2022-08-20T09:19:34.784Z,8.80
2022-08-20T09:20:34.725Z,5.30
2022-08-20T09:21:34.657Z,5.60
2022-08-20T09:22:34.609Z,5.80
2022-08-20T09:23:34.533Z,7.40
2022-08-20T09:24:35.261Z,5.40
2022-08-20T09:25:35.352Z,5.40
2022-08-20T09:26:38.571Z,5.50
2022-08-20T09:27:34.294Z,5.90
2022-08-20T09:28:35.031Z,5.40
2022-08-20T09:29:34.168Z,5.30
2022-08-20T09:30:34.122Z,5.40
2022-08-20T09:31:34.029Z,15.50
2022-08-20T09:32:33.968Z,5.90
2022-08-20T09:33:33.935Z,4.30
2022-08-20T09:34:34.857Z,3.60
2022-08-20T09:35:33.801Z,3.80
2022-08-20T09:36:35.297Z,8.40
2022-08-20T09:37:37.451Z,7.10
2022-08-20T09:38:33.609Z,3.90
2022-08-20T09:39:33.621Z,3.50
2022-08-20T09:40:33.473Z,3.40
2022-08-20T09:41:34.458Z,4.50
2022-08-20T09:42:36.368Z,3.20
2022-08-20T09:43:33.306Z,3.10
2022-08-20T09:44:33.236Z,3.40
2022-08-20T09:45:33.171Z,2.90
2022-08-20T09:46:33.094Z,4.00
2022-08-20T09:47:33.029Z,3.20
2022-08-20T09:48:32.987Z,3.50
2022-08-20T09:49:32.923Z,3.70
2022-08-20T09:50:32.839Z,3.30
2022-08-20T09:51:32.790Z,3.00
2022-08-20T09:52:32.726Z,3.10
2022-08-20T09:53:32.659Z,3.10
2022-08-20T09:54:34.132Z,3.30
2022-08-20T09:55:32.542Z,2.90
2022-08-20T09:56:32.480Z,2.50
2022-08-20T09:57:32.400Z,2.40
2022-08-20T09:58:32.375Z,2.10
2022-08-20T09:59:32.272Z,2.30
2022-08-20T10:00:32.272Z,2.20
2022-08-20T10:01:32.231Z,1.90
2022-08-20T10:02:32.098Z,2.40
2022-08-20T10:03:32.023Z,2.20
2022-08-20T10:04:31.965Z,1.70
2022-08-20T10:05:31.910Z,1.90
2022-08-20T10:06:35.881Z,4.10
2022-08-20T10:07:31.795Z,1.70
2022-08-20T10:08:31.731Z,1.70
2022-08-20T10:09:31.659Z,1.70
2022-08-20T10:10:31.588Z,1.60
2022-08-20T10:11:31.517Z,2.00
2022-08-20T10:12:31.466Z,1.70
2022-08-20T10:13:31.396Z,2.00
2022-08-20T10:14:31.342Z,2.00
2022-08-20T10:15:31.275Z,1.90
2022-08-20T10:16:31.204Z,1.90
2022-08-20T10:17:31.141Z,1.90
2022-08-20T10:18:31.110Z,1.90
2022-08-20T10:19:31.028Z,1.80
2022-08-20T10:20:30.972Z,2.20
2022-08-20T10:21:33.389Z,2.10
2022-08-20T10:22:30.851Z,2.10
2022-08-20T10:23:30.782Z,1.90
2022-08-20T10:24:30.729Z,1.90
2022-08-20T10:25:30.648Z,1.90
2022-08-20T10:26:30.577Z,1.70
2022-08-20T10:27:30.528Z,1.60
2022-08-20T10:28:30.470Z,1.70
2022-08-20T10:29:30.411Z,1.80
2022-08-20T10:30:30.356Z,1.70
2022-08-20T10:31:30.274Z,1.80
2022-08-20T10:32:30.227Z,1.60
2022-08-20T10:33:31.278Z,2.40
2022-08-20T10:34:30.076Z,1.50
2022-08-20T10:35:30.016Z,1.70
2022-08-20T10:36:30.755Z,1.80
2022-08-20T10:37:29.891Z,1.40
2022-08-20T10:38:29.824Z,1.70
2022-08-20T10:39:31.544Z,1.50
2022-08-20T10:40:29.711Z,1.90
2022-08-20T10:41:29.646Z,1.50
2022-08-20T10:42:29.605Z,1.90
2022-08-20T10:43:29.533Z,2.00
2022-08-20T10:44:29.455Z,2.00
2022-08-20T10:45:29.389Z,1.70
2022-08-20T10:46:29.324Z,1.70
2022-08-20T10:47:29.269Z,1.80
2022-08-20T10:48:29.247Z,1.70
2022-08-20T10:49:29.151Z,2.50
2022-08-20T10:50:29.518Z,2.00
2022-08-20T10:51:32.271Z,2.20
2022-08-20T10:52:28.953Z,2.80
2022-08-20T10:53:28.894Z,2.30
2022-08-20T10:54:29.116Z,2.00
2022-08-20T10:55:28.773Z,2.00
2022-08-20T10:56:28.719Z,2.10
2022-08-20T10:57:28.650Z,2.00
2022-08-20T10:58:37.557Z,2.20
2022-08-20T10:59:28.538Z,2.10
2022-08-20T11:00:30.860Z,2.00
2022-08-20T11:01:32.956Z,3.80
2022-08-20T11:02:28.408Z,6.90
2022-08-20T11:03:28.271Z,2.00
2022-08-20T11:04:28.219Z,2.50
2022-08-20T11:05:28.138Z,2.20
2022-08-20T11:06:28.099Z,2.50
2022-08-20T11:07:55.376Z,2.10
2022-08-20T11:08:33.454Z,2.50
2022-08-20T11:09:27.921Z,2.00
2022-08-20T11:10:27.847Z,5.30
2022-08-20T11:11:27.772Z,2.00
2022-08-20T11:12:27.728Z,2.20
2022-08-20T11:13:27.654Z,2.30
2022-08-20T11:14:27.580Z,2.00
2022-08-20T11:15:27.537Z,1.70
2022-08-20T11:16:27.476Z,1.80
2022-08-20T11:17:27.404Z,3.80
2022-08-20T11:18:31.148Z,2.00
2022-08-20T11:19:27.282Z,2.00
2022-08-20T11:20:27.215Z,1.90
2022-08-20T11:21:27.154Z,2.60
2022-08-20T11:22:27.078Z,2.00
2022-08-20T11:23:27.026Z,2.00
2022-08-20T11:24:26.979Z,1.90
2022-08-20T11:25:26.884Z,2.50
2022-08-20T11:26:26.823Z,3.30
2022-08-20T11:27:26.783Z,8.10
2022-08-20T11:28:31.672Z,2.10
2022-08-20T11:29:28.304Z,2.00
2022-08-20T11:30:26.584Z,2.30
2022-08-20T11:31:26.529Z,2.10
2022-08-20T11:32:26.451Z,1.90
2022-08-20T11:33:26.407Z,2.10
2022-08-20T11:34:26.337Z,2.60
2022-08-20T11:35:48.165Z,2.20
2022-08-20T11:36:26.212Z,2.00
2022-08-20T11:37:26.154Z,1.70
2022-08-20T11:38:26.079Z,1.80
2022-08-20T11:39:26.013Z,2.10
2022-08-20T11:40:26.033Z,2.00
2022-08-20T11:41:25.885Z,9.30
2022-08-20T11:42:27.372Z,1.60
2022-08-20T11:43:25.777Z,1.60
2022-08-20T11:44:25.698Z,1.70
2022-08-20T11:45:25.661Z,2.10
2022-08-20T11:46:28.583Z,3.30
2022-08-20T11:47:25.510Z,2.00
2022-08-20T11:48:25.463Z,1.50
2022-08-20T11:49:25.406Z,1.90
2022-08-20T11:50:25.343Z,1.60
2022-08-20T11:51:25.263Z,1.40
2022-08-20T11:52:25.210Z,1.50
2022-08-20T11:53:25.136Z,1.80
2022-08-20T11:54:26.300Z,1.80
2022-08-20T11:55:30.133Z,1.70
2022-08-20T11:56:24.970Z,1.80
2022-08-20T11:57:24.901Z,1.70
2022-08-20T11:58:24.842Z,1.40
2022-08-20T11:59:24.758Z,1.60
2022-08-20T12:00:31.981Z,2.50
2022-08-20T12:01:24.659Z,1.60
2022-08-20T12:02:24.631Z,1.50
2022-08-20T12:03:24.679Z,1.90
2022-08-20T12:04:25.189Z,1.70
2022-08-20T12:05:24.389Z,1.60
2022-08-20T12:06:26.299Z,3.40
2022-08-20T12:07:24.262Z,1.40
2022-08-20T12:08:27.568Z,1.70
2022-08-20T12:09:24.897Z,2.20
2022-08-20T12:10:24.099Z,1.50
2022-08-20T12:11:24.017Z,1.60
2022-08-20T12:12:23.981Z,1.50
2022-08-20T12:13:30.530Z,1.70
2022-08-20T12:14:23.838Z,1.50
2022-08-20T12:15:23.771Z,1.50
2022-08-20T12:16:23.702Z,1.40
2022-08-20T12:17:23.633Z,1.20
2022-08-20T12:18:23.991Z,6.40
2022-08-20T12:19:23.526Z,2.20
2022-08-20T12:20:23.452Z,3.50
2022-08-20T12:21:23.388Z,1.80
2022-08-20T12:22:25.292Z,1.90
2022-08-20T12:23:23.273Z,2.00
2022-08-20T12:24:23.223Z,1.90
2022-08-20T12:25:23.141Z,2.30
2022-08-20T12:26:23.088Z,2.10
2022-08-20T12:27:23.028Z,2.90
2022-08-20T12:28:25.819Z,1.90
2022-08-20T12:29:22.884Z,4.10
2022-08-20T12:30:23.621Z,2.20
2022-08-20T12:31:22.769Z,2.30
2022-08-20T12:32:22.711Z,2.10
2022-08-20T12:33:22.634Z,2.40
2022-08-20T12:34:23.084Z,2.80
2022-08-20T12:35:22.519Z,2.90
2022-08-20T12:36:22.453Z,6.80
2022-08-20T12:37:22.392Z,2.90
2022-08-20T12:38:22.321Z,2.80
2022-08-20T12:39:22.259Z,2.90
2022-08-20T12:40:32.129Z,3.20
2022-08-20T12:41:22.146Z,3.50
2022-08-20T12:42:22.853Z,3.20
2022-08-20T12:43:25.011Z,3.30
2022-08-20T12:44:21.947Z,3.20
2022-08-20T12:45:21.876Z,3.00
2022-08-20T12:46:21.818Z,2.80
2022-08-20T12:47:21.753Z,2.80
2022-08-20T12:48:23.985Z,3.50
2022-08-20T12:49:21.640Z,3.10
2022-08-20T12:50:21.577Z,3.40
2022-08-20T12:51:21.503Z,2.80
2022-08-20T12:52:21.464Z,3.20
2022-08-20T12:53:21.394Z,13.40
2022-08-20T12:54:21.328Z,6.20
2022-08-20T12:55:21.274Z,3.40
2022-08-20T12:56:21.209Z,3.30
2022-08-20T12:57:21.139Z,3.10
2022-08-20T12:58:21.077Z,4.90
2022-08-20T12:59:25.357Z,3.10
2022-08-20T13:00:21.730Z,3.00
2022-08-20T13:01:20.906Z,3.20
2022-08-20T13:02:20.813Z,3.40
2022-08-20T13:03:20.769Z,3.00